Weather observations for the past three days for
St. Cloud Regional Airport
Metric (Imperial)
Date Time (cdt) Wind (kph) Vis. (km) Weather Sky Cond. Temperature (ºC) Relative Humidity Wind Chill (°C) Heat Index (°C) Pressure Precipitation (cm)
Air Dwpt 6 hour altimeter (cm) sea level (mb) 1 hr 3 hr 6 hr
Max. Min.
05 15:53 NW 31 G 43 16.09 Overcast SCT060 OVC070 9.4 -6.1 33% 6 75.82 1012.2
05 14:53 W 20 16.09 Overcast OVC065 8.9 -6.1 34% 6 75.82 1012.3
05 13:53 NW 20 16.09 Overcast OVC060 8.3 -5.6 37% 5 75.82 1012.5
05 12:53 NW 22 G 35 16.09 Overcast OVC060 7.8 -6.1 7.8 0.6 37% 5 75.82 1012.3
05 11:53 NW 30 G 39 16.09 Overcast OVC060 7.2 -6.7 37% 3 75.82 1012.3
05 10:53 W 24 G 41 16.09 Mostly Cloudy BKN050 6.1 -6.7 40% 2 75.82 1012.2
05 09:53 NW 19 16.09 Fair CLR 5.6 -6.1 43% 2 75.79 1012.1
05 08:53 NW 17 16.09 Partly Cloudy SCT080 4.4 -6.7 45% 1 75.77 1011.7
05 07:53 NW 13 16.09 Fair CLR 3.3 -6.7 48% 0 75.74 1011.2
05 06:53 NW 11 16.09 Fair CLR 0.6 -5 4.4 -1.1 66% -2 75.69 1010.5
05 05:53 W 11 16.09 Fair CLR -1.1 -4.4 79% -5 75.64 1010.1
05 04:53 NW 13 16.09 Fair CLR 0.6 -3.9 72% -3 75.62 1009.7
05 03:53 NW 17 16.09 Fair CLR 1.7 -3.3 70% -2 75.59 1009.1
05 02:53 NW 13 16.09 Fair CLR 1.7 -3.9 67% -2 75.57 1008.8
05 01:53 W 15 16.09 A Few Clouds FEW085 3.3 -3.9 60% 0 75.54 1008.5
05 00:53 NW 13 16.09 Fair CLR 3.3 -4.4 10 3.3 57% 0 75.51 1008.2
04 23:53 W 20 16.09 Fair CLR 5 -4.4 51% 1 75.51 1007.8
04 22:53 NW 17 16.09 Fair CLR 5.6 -5 47% 3 75.49 1007.6
04 21:53 W 17 16.09 Fair CLR 6.7 -4.4 45% 4 75.46 1007.1
04 20:53 NW 22 16.09 A Few Clouds FEW080 7.8 -4.4 42% 5 75.39 1006.3
04 19:53 NW 31 G 43 16.09 Mostly Cloudy BKN075 8.3 -5.6 37% 5 75.34 1005.5
04 18:53 NW 28 G 48 16.09 Mostly Cloudy BKN060 10 -5.6 13.9 9.4 33% 7 75.34 1005.5
04 17:53 NW 43 G 59 16.09 Mostly Cloudy and Windy BKN065 10 -4.4 36% 6 75.31 1004.8
04 16:53 NW 31 G 52 16.09 Mostly Cloudy BKN065 11.1 -4.4 34% 75.23 1004.0
04 15:53 NW 31 G 52 16.09 Mostly Cloudy BKN065 12.2 -3.9 33% 75.18 1003.3
04 14:53 NW 48 G 59 16.09 Mostly Cloudy and Windy BKN060 12.2 -3.3 34% 75.16 1002.8
04 13:53 NW 39 G 50 16.09 Mostly Cloudy and Breezy BKN055 BKN070 12.2 -1.7 38% 75.08 1001.9
04 12:53 NW 26 G 50 16.09 Mostly Cloudy BKN050 12.8 -0.6 14.4 12.2 40% 75.03 1001.1
04 11:53 NW 28 G 56 16.09 A Few Clouds FEW047 13.3 0.6 42% 74.98 1000.6
04 10:53 NW 35 G 54 16.09 Fair and Breezy CLR 12.8 -1.1 38% 74.9 999.6
04 09:53 W 37 G 61 16.09 Fair and Breezy CLR 13.9 0.6 41% 74.88 999.1
04 08:53 W 35 G 50 16.09 Fair and Breezy CLR 13.3 1.7 46% 74.83 998.4
04 07:53 NW 39 G 52 16.09 Fair and Breezy CLR 12.2 1.1 47% 74.8 997.9
04 06:53 NW 24 16.09 Fair CLR 12.2 2.8 15.6 12.2 53% 74.73 997.0
04 05:53 W 31 G 50 16.09 Fair CLR 15 1.7 41% 74.63 995.4
04 04:53 SW 28 G 50 16.09 A Few Clouds FEW110 15 -1.1 33% 74.6 995.1
04 03:53 SW 28 16.09 Fair CLR 15 -2.8 29% 74.63 995.3
04 02:53 SW 20 G 41 16.09 Fair CLR 15 -3.3 28% 74.7 996.5
04 01:53 SW 19 16.09 Fair CLR 14.4 -2.2 32% 74.83 998.1
04 00:53 S 17 16.09 Fair CLR 13.3 -0.6 20.6 11.7 39% 74.9 999.5
03 23:53 S 15 16.09 Fair CLR 12.8 -0.6 40% 74.98 1000.4
03 22:53 S 15 16.09 Fair CLR 12.2 -0.6 42% 75.11 1002.0
03 21:53 S 13 16.09 Fair CLR 12.8 -1.1 38% 75.21 1003.4
03 20:53 SW 7 16.09 Fair CLR 15 -1.1 33% 75.23 1004.0
03 19:53 W 22 16.09 Fair CLR 18.9 -2.2 24% 75.26 1004.3
03 18:53 W 15 16.09 Fair CLR 20 -3.3 21.7 18.3 21% 75.31 1004.7
03 17:53 W 24 G 33 16.09 Fair CLR 20.6 -4.4 18% 75.34 1005.4
03 16:53 W 26 G 37 16.09 Fair CLR 21.1 -2.8 20% 75.36 1005.7
03 15:53 NW 17 G 33 16.09 Fair CLR 20.6 -3.9 19% 75.41 1006.1
03 14:53 NW 13 G 26 16.09 Fair CLR 20.6 -3.9 19% 75.46 1006.8
03 13:53 Vrbl 9 16.09 Fair CLR 19.4 -5 19% 75.51 1007.5
03 12:53 N 13 G 35 16.09 Fair CLR 18.3 -3.9 18.9 8.3 22% 75.57 1008.2
03 11:53 NW 22 16.09 Fair CLR 17.8 -0.6 29% 75.59 1008.6
03 10:53 NW 24 G 41 16.09 Fair CLR 16.7 1.1 35% 75.59 1008.4
03 09:53 N 19 G 37 16.09 Fair CLR 16.1 1.7 38% 75.57 1008.2
03 08:53 NW 20 G 39 16.09 Fair CLR 13.9 2.8 47% 75.57 1008.1
03 07:53 N 19 G 33 16.09 Fair CLR 11.1 2.2 55% 75.51 1007.6
03 06:53 N 11 16.09 Fair CLR 8.3 1.7 13.3 6.1 63% 7 75.44 1006.7
03 05:53 NW 11 16.09 Fair CLR 6.7 1.1 68% 5 75.39 1005.9
03 04:53 NW 6 16.09 Fair CLR 8.3 1.1 61% 75.36 1005.5
03 03:53 SW 9 16.09 Fair CLR 10 1.1 54% 9 75.34 1005.2
03 02:53 SW 9 16.09 Fair CLR 12.2 1.1 47% 75.36 1005.4
03 01:53 SW 15 16.09 Fair CLR 12.8 1.7 47% 75.39 1005.7
03 00:53 S 9 16.09 Fair CLR 11.7 2.2 17.8 11.7 52% 75.41 1006.2
02 23:53 SE 17 16.09 Fair CLR 12.2 0.6 45% 75.44 1006.8
02 22:53 SE 11 16.09 Mostly Cloudy BKN100 12.8 1.1 45% 75.51 1007.8
02 21:53 SE 17 16.09 Partly Cloudy SCT110 14.4 1.7 42% 75.59 1008.6
02 20:53 S 11 0.00 Overcast OVC110 14.4 1.1 41% 75.64 1009.4
02 19:53 SW 11 16.09 Overcast OVC100 16.1 0.6 35% 75.72 1010.6
02 18:53 W 31 G 59 16.09 Overcast OVC090 17.8 -1.7 19.4 16.1 27% 75.77 1011.4
02 17:53 W 28 G 41 16.09 Mostly Cloudy BKN100 18.9 -2.2 24% 75.74 1011.2
02 16:53 W 15 16.09 Overcast BKN090 OVC100 18.9 -0.6 27% 75.77 1011.4
Date Time (cdt) Wind (kph) Vis. (km) Weather Sky Cond. Air Dwpt Max. Min. Relative Humidity Wind Chill (°C) Heat Index (°C) altimeter (cm) sea level (mb) 1 hr 3 hr 6 hr
6 hour
Temperature (ºC) Pressure Precipitation (cm)